Data for 12/31/2013

Time Sea-Level Adjusted Pressure Absolute Pressure Temperature Relative Humidity Dew Point   
(mb) (inHg) (mb) (inHg) (C) (F) (%) (C) (F)
00:05 1016 30 845 24.95 3.4 38.1 58 -4.2 24.5
00:10 1016 30 845 24.95 3.4 38.1 58 -4.2 24.5
00:15 1016 30 845 24.95 3.3 37.9 58 -4.2 24.5
00:20 1016 30 845 24.95 3.3 38 57 -4.4 24
00:25 1016 30 845 24.95 3.4 38.2 57 -4.3 24.2
00:30 1016 30 845 24.95 3.6 38.4 56 -4.4 24.2
00:35 1016 30 845 24.95 3.6 38.5 57 -4.1 24.5
00:40 1016 30 845 24.95 3.4 38.2 57 -4.2 24.5
00:45 1016 30 845 24.95 3.2 37.7 59 -4.2 24.5
00:50 1016 30 845 24.95 3.1 37.5 59 -4.2 24.4
00:55 1016 30 845 24.95 3.1 37.6 59 -4.1 24.6
01:00 1016 30 845 24.95 3.2 37.7 58 -4.3 24.2
01:05 1016 30 845 24.95 3.2 37.8 58 -4.2 24.4
01:10 1016 30 845 24.95 3.2 37.8 58 -4.3 24.3
01:15 1016 30 845 24.95 3.4 38.1 57 -4.3 24.3
01:20 1016 30 845 24.95 3.5 38.4 57 -4.1 24.6
01:25 1016 30 845 24.95 3.7 38.7 56 -4.1 24.5
01:30 1016 30 845 24.95 3.9 39 56 -4.2 24.5
01:35 1016 30 845 24.95 3.9 39 56 -4.1 24.5
01:40 1016 30 845 24.95 4 39.3 55 -4.1 24.6
01:45 1016 30 845 24.95 4 39.3 56 -3.9 25
01:50 1016 30 845 24.95 3.8 38.8 57 -3.9 24.9
01:55 1016 30 845 24.95 3.9 39 56 -4.1 24.7
02:00 1016 30 845 24.95 3.9 39 58 -3.7 25.4
02:05 1016 30 845 24.95 3.9 39 56 -4 24.8
02:10 1016 30 845 24.95 3.7 38.7 58 -3.8 25.2
02:15 1016 30 845 24.95 3.4 38.1 60 -3.6 25.6
02:20 1016 30 845 24.95 3.6 38.4 58 -4 24.8
02:25 1016 30 845 24.95 3.7 38.7 58 -3.8 25.1
02:30 1016 30 845 24.95 3.8 38.9 57 -3.9 24.9
02:35 1016 30 845 24.95 4 39.2 57 -3.8 25.1
02:40 1016 30 845 24.95 4 39.1 58 -3.6 25.6
02:45 1016 30 845 24.95 3.8 38.8 58 -3.7 25.3
02:50 1016 30 845 24.95 3.8 38.8 59 -3.5 25.6
02:55 1016 30 845 24.95 3.8 38.8 59 -3.5 25.6
03:00 1016 30 845 24.95 3.8 38.9 58 -3.6 25.6
03:05 1016 30 845 24.95 3.9 39 58 -3.6 25.5
03:10 1016 30 845 24.95 4 39.2 57 -3.7 25.3
03:15 1016 30 845 24.95 3.8 38.8 58 -3.7 25.4
03:20 1016 30 845 24.95 3.9 39.1 56 -4.1 24.7
03:25 1016 30 845 24.95 4.2 39.5 56 -3.9 24.9
03:30 1016 30 845 24.95 4.2 39.5 56 -3.8 25.1
03:35 1016 30 845 24.95 4.1 39.3 56 -3.8 25.1
03:40 1016 30 845 24.95 4.3 39.7 56 -3.8 25.2
03:45 1016 30 845 24.95 4.3 39.7 56 -3.6 25.4
03:50 1016 30 845 24.95 4.4 39.9 56 -3.7 25.4
03:55 1016 30 845 24.95 4.4 39.9 56 -3.6 25.5
04:00 1016 30 845 24.95 4.4 40 56 -3.5 25.7
04:05 1016 30 845 24.95 4.3 39.8 56 -3.6 25.5
04:10 1016 30 845 24.95 4.4 39.9 56 -3.6 25.5
04:15 1016 30 845 24.95 4.4 39.9 56 -3.5 25.7
04:20 1016 30 845 24.95 4.3 39.8 57 -3.5 25.7
04:25 1016 30 845 24.95 4.2 39.5 58 -3.4 25.8
04:30 1016 30 845 24.95 4 39.3 58 -3.6 25.6
04:35 1016 30 845 24.95 4 39.2 58 -3.5 25.7
04:40 1016 30 845 24.95 3.9 39 58 -3.7 25.4
04:45 1016 30 845 24.95 4 39.2 58 -3.6 25.5
04:50 1016 30 845 24.95 4.2 39.5 57 -3.6 25.5
04:55 1016 30 845 24.95 4.2 39.6 58 -3.4 25.9
05:00 1016 30 845 24.95 4.1 39.4 58 -3.5 25.7
05:05 1016 30 845 24.95 4.4 40 56 -3.6 25.5
05:10 1016 30 845 24.95 4.8 40.6 56 -3.3 26
05:15 1016 30 845 24.95 4.7 40.4 57 -3.1 26.4
05:20 1016 30 845 24.95 4.4 39.9 59 -3 26.6
05:25 1016 30 845 24.95 4.2 39.5 57 -3.5 25.7
05:30 1016 30 845 24.95 4.8 40.6 56 -3.3 26
05:35 1016 30 845 24.95 4.9 40.8 56 -3.2 26.2
05:40 1016 30 845 24.95 4.7 40.5 56 -3.3 26
05:45 1016 30 845 24.95 4.6 40.4 56 -3.5 25.8
05:50 1016 30 845 24.95 4.5 40.2 57 -3.3 26.1
05:55 1016 30 845 24.95 4.5 40.1 57 -3.3 26
06:00 1015 29.97 845 24.95 4.5 40.1 57 -3.2 26.2
06:05 1016 30 845 24.95 4.4 40 57 -3.2 26.2
06:10 1015 29.97 845 24.95 4.5 40.1 56 -3.5 25.8
06:15 1015 29.97 845 24.95 4.4 39.9 59 -3 26.6
06:20 1015 29.97 845 24.95 4.1 39.4 59 -3.1 26.3
06:25 1015 29.97 845 24.95 4.1 39.3 59 -3.2 26.3
06:30 1015 29.97 845 24.95 4.1 39.4 58 -3.3 26.1
06:35 1015 29.97 845 24.95 4.1 39.4 59 -3.2 26.3
06:40 1015 29.97 845 24.95 4.1 39.3 59 -3.3 26.1
06:45 1016 30 845 24.95 4.2 39.6 58 -3.3 26
06:50 1015 29.97 845 24.95 4.4 40 56 -3.5 25.7
06:55 1015 29.97 845 24.95 4.5 40.2 56 -3.4 25.9
07:00 1015 29.97 845 24.95 4.6 40.3 56 -3.4 25.9
07:05 1015 29.97 844 24.92 4.6 40.3 55 -3.6 25.6
07:10 1015 29.97 844 24.92 4.8 40.7 55 -3.4 25.9
07:15 1015 29.97 845 24.95 4.7 40.4 57 -3.1 26.4
07:20 1016 30 845 24.95 4.6 40.3 57 -3.2 26.2
07:25 1016 30 845 24.95 4.5 40.1 58 -3.2 26.3
07:30 1016 30 845 24.95 4.2 39.6 59 -3 26.7
07:35 1016 30 845 24.95 3.9 39 60 -3.1 26.5
07:40 1016 30 845 24.95 3.8 38.9 60 -3.1 26.3
07:45 1016 30 845 24.95 3.9 39.1 61 -2.9 26.7
07:50 1016 30 845 24.95 4 39.3 60 -3 26.6
07:55 1016 30 845 24.95 4.2 39.6 60 -3 26.6
08:00 1016 30 845 24.95 4.3 39.7 59 -2.9 26.7
08:05 1016 30 845 24.95 4.2 39.6 60 -3 26.6
08:10 1016 30 845 24.95 4.3 39.7 58 -3.2 26.2
08:15 1016 30 845 24.95 4.3 39.8 57 -3.4 25.9
08:20 1016 30 845 24.95 4.4 39.9 58 -3.2 26.2
08:25 1016 30 845 24.95 4.3 39.7 58 -3.3 26
08:30 1016 30 845 24.95 4.2 39.5 59 -3.1 26.4
08:35 1016 30 845 24.95 4.2 39.5 59 -3.2 26.3
08:40 1016 30 845 24.95 4.2 39.6 59 -3 26.6
08:45 1015 29.97 845 24.95 4.4 39.8 57 -3.5 25.7
08:50 1015 29.97 845 24.95 4.6 40.2 57 -3.2 26.2
08:55 1015 29.97 845 24.95 4.7 40.5 56 -3.4 25.9
09:00 1015 29.97 845 24.95 4.8 40.7 55 -3.3 26
09:05 1015 29.97 845 24.95 4.9 40.9 53 -3.8 25.2
09:10 1015 29.97 845 24.95 5.1 41.1 54 -3.6 25.5
09:15 1015 29.97 845 24.95 5 41 54 -3.5 25.7
09:20 1015 29.97 845 24.95 4.9 40.8 54 -3.7 25.3
09:25 1015 29.97 845 24.95 5 41 53 -3.7 25.3
09:30 1015 29.97 845 24.95 5 41.1 53 -3.8 25.2
09:35 1015 29.97 845 24.95 5 41 54 -3.6 25.6
09:40 1015 29.97 845 24.95 4.9 40.8 53 -3.8 25.2
09:45 1015 29.97 845 24.95 4.9 40.8 51 -4.3 24.2
09:50 1015 29.97 845 24.95 5.1 41.2 53 -3.6 25.6
09:55 1015 29.97 845 24.95 4.9 40.9 53 -3.9 25
10:00 1015 29.97 845 24.95 5 41.1 52 -4 24.7
10:05 1015 29.97 845 24.95 5 41.1 53 -3.8 25.2
10:10 1015 29.97 845 24.95 4.8 40.7 53 -3.9 24.9
10:15 1015 29.97 845 24.95 4.9 40.9 53 -3.8 25.1
10:20 1015 29.97 845 24.95 4.8 40.7 52 -4.1 24.6
10:25 1015 29.97 845 24.95 4.9 40.8 52 -4.2 24.4
10:30 1016 30 845 24.95 5.2 41.3 51 -4 24.7
10:35 1016 30 845 24.95 5.2 41.4 52 -3.8 25.2
10:40 1016 30 845 24.95 5.1 41.2 53 -3.7 25.4
10:45 1016 30 845 24.95 4.9 40.9 54 -3.7 25.3
10:50 1016 30 845 24.95 5 41.1 52 -4 24.7
10:55 1016 30 845 24.95 5.3 41.5 51 -4.2 24.5
11:00 1016 30 845 24.95 5.3 41.6 52 -3.8 25.1
11:05 1016 30 845 24.95 5.2 41.3 52 -4 24.9
11:10 1016 30 845 24.95 5 41 53 -3.7 25.4
11:15 1016 30 845 24.95 5 41 51 -4.3 24.3
11:20 1016 30 845 24.95 5.3 41.5 51 -4 24.7
11:25 1016 30 845 24.95 4.9 40.9 52 -4 24.7
11:30 1016 30 845 24.95 5.3 41.5 49 -4.5 23.8
11:35 1016 30 845 24.95 5.4 41.8 50 -4.1 24.6
11:40 1016 30 845 24.95 5.5 41.8 48 -4.6 23.7
11:45 1016 30 845 24.95 5.7 42.2 49 -4.2 24.4
11:50 1016 30 845 24.95 5.5 41.9 50 -4 24.8
11:55 1015 29.97 845 24.95 5.4 41.7 49 -4.5 23.9
12:00 1015 29.97 845 24.95 5.8 42.4 47 -4.6 23.7
12:05 1015 29.97 845 24.95 5.9 42.7 48 -4.4 24.1
12:10 1015 29.97 844 24.92 5.7 42.2 50 -3.8 25.1
12:15 1015 29.97 844 24.92 5.5 41.9 50 -4.1 24.6
12:20 1015 29.97 844 24.92 5.7 42.2 47 -4.7 23.6
12:25 1015 29.97 844 24.92 5.9 42.6 49 -3.9 25
12:30 1015 29.97 844 24.92 5.7 42.3 48 -4.5 23.8
12:35 1015 29.97 844 24.92 5.8 42.5 48 -4.2 24.4
12:40 1015 29.97 844 24.92 5.9 42.6 47 -4.4 24
12:45 1015 29.97 844 24.92 5.7 42.2 51 -3.7 25.4
12:50 1015 29.97 844 24.92 5.4 41.8 49 -4.4 24
12:55 1015 29.97 844 24.92 5.8 42.4 47 -4.7 23.5
13:00 1015 29.97 844 24.92 5.9 42.6 47 -4.7 23.6
13:05 1014 29.94 844 24.92 6 42.7 47 -4.4 24.2
13:10 1014 29.94 844 24.92 5.9 42.7 48 -4.1 24.6
13:15 1014 29.94 844 24.92 5.7 42.2 50 -3.8 25.1
13:20 1014 29.94 844 24.92 5.4 41.8 52 -3.6 25.4
13:25 1014 29.94 844 24.92 5.4 41.7 52 -3.7 25.3
13:30 1014 29.94 844 24.92 5.6 42 50 -4 24.8
13:35 1014 29.94 844 24.92 5.6 42.1 51 -3.8 25.1
13:40 1014 29.94 844 24.92 5.6 42.1 50 -3.9 25
13:45 1015 29.97 844 24.92 5.6 42.1 52 -3.6 25.6
13:50 1015 29.97 844 24.92 5.4 41.8 53 -3.3 26.1
13:55 1015 29.97 844 24.92 5.2 41.3 55 -3 26.5
14:00 1015 29.97 844 24.92 5.2 41.3 55 -3.2 26.2
14:05 1014 29.94 844 24.92 5.2 41.4 55 -3 26.6
14:10 1014 29.94 844 24.92 5.1 41.1 58 -2.6 27.3
14:15 1014 29.94 844 24.92 4.9 40.9 59 -2.3 27.8
14:20 1014 29.94 844 24.92 4.8 40.7 59 -2.5 27.5
14:25 1014 29.94 844 24.92 4.7 40.5 58 -2.7 27.1
14:30 1015 29.97 844 24.92 4.8 40.7 58 -2.7 27.1
14:35 1015 29.97 844 24.92 4.8 40.7 57 -2.8 26.9
14:40 1015 29.97 844 24.92 4.9 40.9 58 -2.7 27.1
14:45 1015 29.97 844 24.92 4.9 40.9 58 -2.7 27.2
14:50 1015 29.97 844 24.92 4.9 40.8 58 -2.7 27.2
14:55 1015 29.97 844 24.92 5.1 41.2 56 -2.9 26.9
15:00 1015 29.97 844 24.92 5.2 41.4 56 -2.7 27.1
15:05 1015 29.97 844 24.92 5.2 41.3 56 -2.9 26.8
15:10 1015 29.97 844 24.92 5.1 41.1 59 -2.4 27.7
15:15 1015 29.97 844 24.92 4.8 40.6 68 -0.6 30.9
15:20 1015 29.97 844 24.92 4.1 39.4 68 -1.2 29.9
15:25 1015 29.97 845 24.95 3.9 39.1 71 -0.8 30.5
15:30 1015 29.97 845 24.95 3.6 38.5 76 -0.3 31.5
15:35 1015 29.97 845 24.95 3 37.5 81 0 32
15:40 1015 29.97 845 24.95 2.7 36.9 79 -0.5 31
15:45 1015 29.97 844 24.92 2.7 36.9 81 -0.3 31.5
15:50 1015 29.97 844 24.92 2.7 36.8 80 -0.4 31.3
15:55 1015 29.97 844 24.92 2.8 37 80 -0.4 31.4
16:00 1015 29.97 844 24.92 2.8 37 78 -0.7 30.8
16:05 1015 29.97 844 24.92 2.9 37.2 78 -0.6 31
16:10 1015 29.97 845 24.95 2.9 37.2 79 -0.4 31.3
16:15 1015 29.97 844 24.92 2.8 37.1 81 -0.2 31.7
16:20 1015 29.97 844 24.92 2.6 36.7 82 -0.2 31.7
16:25 1015 29.97 844 24.92 2.5 36.5 82 -0.2 31.7
16:30 1015 29.97 844 24.92 2.4 36.4 83 -0.2 31.7
16:35 1015 29.97 844 24.92 2.3 36.2 83 -0.3 31.4
16:40 1015 29.97 845 24.95 2.4 36.3 79 -0.8 30.5
16:45 1015 29.97 845 24.95 2.6 36.7 78 -0.8 30.5
16:50 1015 29.97 845 24.95 2.7 36.8 76 -1.1 30
16:55 1015 29.97 845 24.95 2.8 37 73 -1.5 29.2
17:00 1016 30 845 24.95 2.9 37.1 74 -1.4 29.5
17:05 1016 30 845 24.95 2.9 37.3 74 -1.3 29.6
17:10 1016 30 845 24.95 3 37.4 73 -1.4 29.4
17:15 1016 30 845 24.95 2.9 37.2 76 -0.9 30.4
17:20 1016 30 845 24.95 2.9 37.3 74 -1.3 29.7
17:25 1016 30 845 24.95 3.1 37.6 75 -1 30.2
17:30 1016 30 845 24.95 2.9 37.1 80 -0.3 31.5
17:35 1016 30 845 24.95 2.2 36 83 -0.3 31.5
17:40 1016 30 846 24.98 2 35.6 85 -0.3 31.4
17:45 1016 30 846 24.98 1.9 35.5 86 -0.2 31.6
17:50 1017 30.03 846 24.98 1.8 35.3 86 -0.3 31.5
17:55 1017 30.03 846 24.98 1.8 35.2 85 -0.5 31.1
18:00 1016 30 846 24.98 1.7 35.1 83 -0.8 30.6
18:05 1016 30 846 24.98 1.8 35.2 81 -1.1 30.1
18:10 1017 30.03 846 24.98 1.9 35.4 80 -1.1 30
18:15 1017 30.03 846 24.98 1.9 35.5 81 -1.1 30.1
18:20 1017 30.03 846 24.98 1.9 35.3 81 -1.1 30.1
18:25 1017 30.03 846 24.98 1.8 35.2 83 -0.8 30.5
18:30 1017 30.03 846 24.98 1.6 34.9 84 -0.8 30.6
18:35 1017 30.03 846 24.98 1.6 34.8 85 -0.7 30.8
18:40 1017 30.03 846 24.98 1.5 34.7 86 -0.6 30.9
18:45 1017 30.03 846 24.98 1.5 34.8 85 -0.6 30.9
18:50 1017 30.03 846 24.98 1.7 35 84 -0.8 30.6
18:55 1017 30.03 846 24.98 1.9 35.3 82 -0.8 30.5
19:00 1017 30.03 846 24.98 1.9 35.5 82 -0.9 30.4
19:05 1017 30.03 846 24.98 2.1 35.7 79 -1.1 30
19:10 1017 30.03 846 24.98 2.2 36 77 -1.4 29.5
19:15 1017 30.03 846 24.98 2.3 36.1 74 -1.9 28.7
19:20 1017 30.03 846 24.98 2.3 36.1 75 -1.8 28.8
19:25 1017 30.03 846 24.98 2.2 36 72 -2.2 28
19:30 1017 30.03 847 25.01 2.3 36.1 71 -2.4 27.6
19:35 1017 30.03 847 25.01 2.3 36.1 70 -2.6 27.3
19:40 1017 30.03 847 25.01 2.2 36 70 -2.6 27.4
19:45 1017 30.03 847 25.01 2.2 35.9 70 -2.7 27.2
19:50 1018 30.06 847 25.01 2.1 35.8 71 -2.6 27.4
19:55 1018 30.06 847 25.01 2 35.6 72 -2.5 27.4
20:00 1018 30.06 847 25.01 1.9 35.5 72 -2.5 27.4
20:05 1018 30.06 847 25.01 1.9 35.4 73 -2.4 27.6
20:10 1018 30.06 847 25.01 1.7 35 80 -1.5 29.4
20:15 1018 30.06 847 25.01 1 33.8 84 -1.3 29.6
20:20 1018 30.06 847 25.01 0.6 33.1 86 -1.5 29.4
20:25 1018 30.06 847 25.01 0.5 32.9 87 -1.5 29.4
20:30 1018 30.06 847 25.01 0.5 32.9 86 -1.5 29.3
20:35 1018 30.06 847 25.01 0.6 33 86 -1.5 29.3
20:40 1018 30.06 847 25.01 0.6 33.1 85 -1.6 29.2
20:45 1018 30.06 847 25.01 0.7 33.2 85 -1.7 29
20:50 1018 30.06 847 25.01 0.7 33.3 84 -1.7 29
20:55 1018 30.06 847 25.01 0.7 33.3 83 -1.8 28.7
21:00 1018 30.06 847 25.01 0.8 33.4 82 -1.9 28.6
21:05 1018 30.06 847 25.01 0.9 33.6 82 -1.9 28.5
21:10 1018 30.06 847 25.01 1 33.7 81 -1.9 28.5
21:15 1018 30.06 847 25.01 1 33.8 80 -2.1 28.3
21:20 1018 30.06 848 25.04 1 33.9 79 -2.2 28.1
21:25 1018 30.06 848 25.04 1.1 33.9 80 -2.1 28.3
21:30 1018 30.06 848 25.04 1.1 33.9 80 -2.1 28.3
21:35 1018 30.06 848 25.04 1 33.8 80 -2 28.5
21:40 1019 30.09 848 25.04 1 33.7 81 -1.9 28.5
21:45 1019 30.09 848 25.04 0.9 33.6 82 -1.9 28.5
21:50 1019 30.09 848 25.04 0.8 33.5 82 -1.8 28.7
21:55 1019 30.09 848 25.04 0.8 33.4 82 -1.9 28.6
22:00 1019 30.09 848 25.04 0.8 33.4 83 -1.8 28.8
22:05 1019 30.09 848 25.04 0.7 33.2 84 -1.7 29
22:10 1019 30.09 848 25.04 0.6 33 85 -1.6 29.1
22:15 1019 30.09 848 25.04 0.3 32.5 88 -1.5 29.3
22:20 1019 30.09 848 25.04 0.2 32.3 89 -1.5 29.3
22:25 1019 30.09 848 25.04 0.1 32.1 89 -1.5 29.3
22:30 1019 30.09 848 25.04 0 32.1 89 -1.6 29.2
22:35 1019 30.09 848 25.04 0.2 32.4 88 -1.5 29.2
22:40 1019 30.09 848 25.04 0.3 32.6 88 -1.5 29.3
22:45 1019 30.09 848 25.04 0.3 32.6 87 -1.5 29.2
22:50 1019 30.09 848 25.04 0.3 32.5 88 -1.5 29.3
22:55 1019 30.09 848 25.04 0.2 32.4 88 -1.6 29.2
23:00 1019 30.09 848 25.04 0.2 32.3 88 -1.6 29.1
23:05 1019 30.09 848 25.04 0.2 32.3 87 -1.7 28.9
23:10 1019 30.09 848 25.04 0.2 32.4 86 -1.8 28.8
23:15 1019 30.09 848 25.04 0.3 32.5 85 -1.9 28.5
23:20 1019 30.09 848 25.04 0.5 32.8 84 -2 28.5
23:25 1019 30.09 848 25.04 0.6 33.1 83 -1.9 28.6
23:30 1019 30.09 848 25.04 0.7 33.2 83 -1.9 28.6
23:35 1019 30.09 848 25.04 0.7 33.3 84 -1.7 28.9
23:40 1019 30.09 848 25.04 0.7 33.2 84 -1.8 28.8
23:45 1019 30.09 848 25.04 0.6 33.2 83 -1.8 28.7
23:50 1019 30.09 848 25.04 0.6 33.2 82 -2 28.4
23:55 1019 30.09 848 25.04 0.7 33.3 80 -2.4 27.7
24:00 1019 30.09 848 25.04 0.8 33.4 79 -2.5 27.4